Flight Track Log - Related Links

Times and Time Zones

All times are in EDT time to prevent confusion due to time zone crossing. See the UAL3740 flight status page for this flight to view local times or setup timezone preferences in your user account.

Time Position Orientation Groundspeed Altitude Reporting Facility
EDT Latitude Longitude Course Direction KTS MPH feet Rate Location/Type
Sun 10:17:01 AM 41.7008 -71.5558 267° West 205 236 3,900  Level Boston Center
Sun 10:18:02 AM 41.7078 -71.6336 277° West 228 262 7,100 3,250 Climbing Boston Center
Sun 10:19:01 AM 41.7706 -71.6942 324° Northwest 228 262 10,400 2,521 Climbing Boston Center
Sun 10:20:01 AM 41.8211 -71.7519 320° Northwest 260 299 12,100 2,231 Climbing Boston Center
Sun 10:21:02 AM 41.8592 -71.8547 296° West 279 321 14,900 2,479 Climbing Boston Center
Sun 10:22:02 AM 41.8886 -71.9464 293° West 291 335 17,100 1,934 Climbing Boston Center
Sun 10:23:03 AM 41.9183 -72.0300 296° West 291 335 18,800 1,916 Climbing Boston Center
Sun 10:24:01 AM 41.9581 -72.1386 296° West 296 341 20,900 1,932 Climbing Boston Center
Sun 10:25:01 AM 41.9939 -72.2389 296° West 296 341 22,600 1,488 Climbing Boston Center
Sun 10:26:02 AM 42.0253 -72.3478 291° West 296 341 23,900 1,261 Climbing Boston Center
Sun 10:27:00 AM 42.0169 -72.4681 265° West 303 349 25,100 1,160 Climbing Boston Center
Sun 10:28:01 AM 42.0044 -72.5881 262° West 314 361 26,200 1,041 Climbing Boston Center
Sun 10:29:01 AM 41.9936 -72.7083 263° West 320 368 27,200 942 Climbing Boston Center
Sun 10:30:02 AM 41.9808 -72.8339 262° West 338 389 28,100 793 Climbing Boston Center
Sun 10:31:02 AM 41.9697 -72.9678 264° West 354 407 28,800 814 Climbing Boston Center
Sun 10:32:00 AM 41.9336 -73.1042 250° West 367 422 29,700 857 Climbing Boston Center
Sun 10:33:01 AM 41.8683 -73.2206 233° Southwest 376 433 30,500 787 Climbing Boston Center
Sun 10:34:02 AM 41.7986 -73.3367 231° Southwest 395 455 31,300 581 Climbing Boston Center
Sun 10:35:36 AM 41.6833 -73.5267 231° Southwest 412 474 32,000 275 Climbing New York Center
Sun 10:36:35 AM 41.6119 -73.6456 231° Southwest 417 480 32,000  Level New York Center
Sun 10:37:36 AM 41.5489 -73.7539 232° Southwest 411 473 32,000  Level New York Center
Sun 10:38:34 AM 41.4664 -73.8775 228° Southwest 429 494 32,000  Level New York Center
Sun 10:39:35 AM 41.3781 -73.9894 224° Southwest 439 505 32,000 -49 Level New York Center
Sun 10:40:36 AM 41.2894 -74.1039 224° Southwest 439 505 31,900 -492 Descending New York Center
Sun 10:41:37 AM 41.1922 -74.2231 223° Southwest 444 511 31,000 -966 Descending New York Center
Sun 10:42:34 AM 41.1058 -74.3317 223° Southwest 444 511 30,000 -1,017 Descending New York Center
Sun 10:43:35 AM 41.0233 -74.4428 225° Southwest 434 499 29,000 -1,000 Descending New York Center
Sun 10:44:34 AM 40.9389 -74.5425 222° Southwest 427 491 28,000 -500 Descending New York Center
Sun 10:45:35 AM 40.8786 -74.6653 237° Southwest 403 464 28,000  Level New York Center
Sun 10:46:36 AM 40.8453 -74.7869 250° West 398 458 28,000  Level New York Center
Sun 10:47:34 AM 40.8033 -74.9161 247° West 392 451 28,000  Level New York Center
Sun 10:48:35 AM 40.7656 -75.0453 249° West 392 451 28,000  Level New York Center
Sun 10:49:33 AM 40.7253 -75.1769 248° West 387 445 28,000  Level New York Center
Sun 10:50:34 AM 40.6828 -75.3083 247° West 387 445 28,000 -49 Level New York Center
Sun 10:51:35 AM 40.6361 -75.4392 245° Southwest 392 451 27,900 -843 Descending New York Center
Sun 10:52:35 AM 40.5831 -75.5639 241° Southwest 392 451 26,300 -2,033 Descending New York Center
Sun 10:53:36 AM 40.5278 -75.6914 240° Southwest 398 458 23,800 -2,479 Descending New York Center
Sun 10:54:36 AM 40.4747 -75.8158 241° Southwest 405 466 21,300 -1,932 Descending New York Center
Sun 10:55:34 AM 40.3983 -75.9411 231° Southwest 399 459 20,000 -655 Descending New York Center
Sun 10:56:35 AM 40.3208 -76.0414 225° Southwest 399 459 20,000 -446 Level New York Center
Sun 10:57:35 AM 40.2414 -76.1386 223° Southwest 399 459 19,100 -913 Descending New York Center
Sun 10:59:39 AM 40.1000 -76.3500 229° Southwest 369 425 17,200 -946 Descending Potomac TRACON
Sun 11:00:39 AM 40.0500 -76.4500 237° Southwest 356 410 16,200 -1,050 Descending Potomac TRACON
Sun 11:01:39 AM 40.0000 -76.5667 241° Southwest 360 414 15,100 -600 Descending Potomac TRACON
Sun 11:02:39 AM 39.9500 -76.6833 241° Southwest 366 421 15,000 -48 Descending Potomac TRACON
Sun 11:03:45 AM 39.8833 -76.8000 233° Southwest 370 426 15,000 -190 Level Potomac TRACON
Sun 11:04:45 AM 39.8333 -76.9167 241° Southwest 362 417 14,600 -694 Descending Potomac TRACON
Sun 11:05:46 AM 39.7833 -77.0167 237° Southwest 355 409 13,600 -1,041 Descending Potomac TRACON
Sun 11:06:46 AM 39.7167 -77.1333 233° Southwest 348 400 12,500 -1,450 Descending Potomac TRACON
Sun 11:07:46 AM 39.6667 -77.2500 241° Southwest 354 407 10,700 -1,250 Descending Potomac TRACON
Sun 11:08:46 AM 39.5833 -77.3000 205° Southwest 306 352 10,000 -1,105 Descending Potomac TRACON
Sun 11:09:40 AM 39.5333 -77.3167 194° South 281 323 8,600 -1,565 Descending Potomac TRACON
Sun 11:10:41 AM 39.4500 -77.3500 197° South 275 316 7,000 -1,276 Descending Potomac TRACON
Sun 11:11:47 AM 39.3667 -77.3667 189° South 286 329 5,900 -1,000 Descending Potomac TRACON
Sun 11:12:41 AM 39.3000 -77.3667 180° South 277 319 5,000 -684 Descending Potomac TRACON
Sun 11:13:41 AM 39.2333 -77.3667 180° South 227 261 4,600 -496 Descending Potomac TRACON
Sun 11:14:42 AM 39.1667 -77.3667 180° South 226 260 4,000 -298 Descending Potomac TRACON
Sun 11:15:42 AM 39.1000 -77.3667 180° South 221 254 4,000 -198 Level Potomac TRACON
Sun 11:16:43 AM 39.0500 -77.3667 180° South 227 261 3,600 -522 Descending Potomac TRACON
Sun 11:17:37 AM 38.9833 -77.3667 180° South 227 261 3,000 -313 Descending Potomac TRACON
Sun 11:18:38 AM 38.9333 -77.3667 180° South 225 259 3,000  Level Potomac TRACON
Sun 11:19:38 AM 38.8667 -77.3667 180° South 226 260 3,000  Level Potomac TRACON
Sun 11:20:38 AM 38.8000 -77.3667 180° South 227 261 3,000  Level Potomac TRACON
Sun 11:21:39 AM 38.7667 -77.4000 218° Southwest 175 201 3,000 -50 Level Potomac TRACON
Sun 11:22:39 AM 38.8000 -77.4167 339° North 152 175 2,900 -450 Descending Potomac TRACON
Sun 11:23:39 AM 38.8333 -77.4333 339° North 165 190 2,100 -750 Descending Potomac TRACON
Sun 11:24:39 AM 38.8833 -77.4333 360° North 133 153 1,400 -700 Descending Potomac TRACON

Login

Don't have an account? Register now (free) for customized features, flight alerts, and more!